Time;durP1;ratioP1;P1;durP2;ratioP2;P2;SDS_P1;SDS_P2;PMS_P1;PMS_P2;Temp;Humidity;BMP_temperature;BMP_pressure;BME280_temperature;BME280_humidity;BME280_pressure;Samples;Min_cycle;Max_cycle;Signal;HPM_P1;HPM_P2
2022/09/25 00:00:22;;;;;;;7.45;1.58;;;12.60;73.70;;;;;;4188540;28;20415;-87
2022/09/25 00:02:24;;;;;;;12.90;2.10;;;12.60;73.80;;;;;;4188170;28;20032;-86
2022/09/25 00:04:24;;;;;;;9.48;1.70;;;12.60;73.90;;;;;;4190249;28;20561;-86
2022/09/25 00:06:27;;;;;;;8.57;1.98;;;12.60;74.00;;;;;;4189230;28;20123;-86
2022/09/25 00:08:29;;;;;;;7.18;1.80;;;12.60;74.10;;;;;;4187976;28;20134;-85
2022/09/25 00:10:30;;;;;;;5.47;1.48;;;12.70;74.20;;;;;;4174455;28;20028;-86
2022/09/25 00:12:31;;;;;;;13.32;1.88;;;12.60;74.30;;;;;;4188379;28;20024;-86
2022/09/25 00:14:32;;;;;;;11.50;1.85;;;12.60;74.40;;;;;;4187276;28;21276;-86
2022/09/25 00:16:32;;;;;;;7.35;1.90;;;12.70;74.50;;;;;;4200189;28;20033;-86
2022/09/25 00:21:00;;;;;;;11.52;1.80;;;12.60;74.40;;;;;;4184998;28;20058;-86
2022/09/25 00:23:01;;;;;;;7.00;1.52;;;12.60;74.30;;;;;;4187924;28;20499;-86
2022/09/25 00:25:02;;;;;;;8.95;2.13;;;12.60;74.20;;;;;;4189484;28;20086;-86
2022/09/25 00:27:04;;;;;;;10.15;1.80;;;12.60;74.20;;;;;;4189034;28;20032;-86
2022/09/25 00:29:07;;;;;;;7.37;1.70;;;12.60;74.10;;;;;;4188824;28;20416;-85
2022/09/25 00:31:09;;;;;;;7.03;1.90;;;12.60;74.00;;;;;;4187639;28;20282;-86
2022/09/25 00:33:10;;;;;;;10.75;2.03;;;12.70;74.00;;;;;;4188497;28;20318;-86
2022/09/25 00:35:10;;;;;;;7.55;1.75;;;12.60;73.90;;;;;;4189580;28;20032;-86
2022/09/25 00:37:11;;;;;;;6.20;1.98;;;12.60;73.90;;;;;;4188658;28;20340;-86
2022/09/25 00:39:12;;;;;;;7.53;2.05;;;12.60;73.90;;;;;;4199613;28;20036;-86
2022/09/25 00:41:17;;;;;;;8.13;2.17;;;12.50;73.80;;;;;;4189602;28;20060;-86
2022/09/25 00:43:43;;;;;;;6.93;1.90;;;12.50;73.90;;;;;;4188400;28;20047;-86
2022/09/25 00:45:44;;;;;;;5.38;1.45;;;12.50;74.10;;;;;;4188329;28;20020;-85
2022/09/25 00:48:03;;;;;;;5.43;1.65;;;12.60;74.10;;;;;;4184913;28;20048;-85
2022/09/25 00:50:17;;;;;;;7.38;1.70;;;12.50;74.30;;;;;;4184873;28;20025;-85
2022/09/25 00:52:18;;;;;;;8.52;1.80;;;12.50;74.20;;;;;;4201149;28;20495;-85
2022/09/25 00:54:23;;;;;;;7.68;2.20;;;12.50;74.20;;;;;;4187208;28;20062;-85
2022/09/25 00:56:24;;;;;;;6.25;1.63;;;12.50;74.40;;;;;;4186703;28;20032;-85
2022/09/25 00:58:27;;;;;;;3.25;1.63;;;12.50;74.50;;;;;;4188320;28;20040;-86
2022/09/25 01:00:30;;;;;;;4.22;1.42;;;12.40;74.40;;;;;;4188492;28;20449;-86
2022/09/25 01:02:34;;;;;;;5.13;1.92;;;12.40;74.50;;;;;;4186164;28;20027;-86
2022/09/25 01:04:36;;;;;;;5.53;1.83;;;12.40;74.60;;;;;;4204368;28;20027;-85
2022/09/25 01:06:38;;;;;;;11.57;1.85;;;12.50;74.70;;;;;;4185478;28;20071;-86
2022/09/25 01:08:39;;;;;;;8.13;1.65;;;12.40;74.60;;;;;;4186609;28;20465;-86
2022/09/25 01:10:41;;;;;;;7.05;1.83;;;12.40;74.60;;;;;;4188344;28;20044;-86
2022/09/25 01:12:45;;;;;;;7.78;1.85;;;12.40;74.60;;;;;;4187183;28;20029;-87
2022/09/25 01:14:46;;;;;;;7.85;1.70;;;12.50;74.60;;;;;;4170288;28;20025;-86
2022/09/25 01:17:06;;;;;;;8.15;2.10;;;12.40;74.60;;;;;;4186323;28;20064;-86
2022/09/25 01:19:28;;;;;;;6.63;1.65;;;12.40;74.70;;;;;;4187394;28;20086;-87
2022/09/25 01:21:35;;;;;;;6.90;1.88;;;12.40;74.80;;;;;;4184277;28;20036;-85
2022/09/25 01:23:56;;;;;;;10.82;2.17;;;12.40;74.60;;;;;;4186753;28;20082;-86
2022/09/25 01:26:30;;;;;;;8.32;1.77;;;12.40;74.80;;;;;;4189059;28;20052;-85
2022/09/25 01:29:15;;;;;;;3.72;2.10;;;12.40;74.70;;;;;;4178954;28;20029;-85
2022/09/25 01:31:41;;;;;;;4.88;1.80;;;12.40;74.80;;;;;;4164542;28;20383;-85
2022/09/25 01:33:55;;;;;;;10.85;1.85;;;12.40;74.80;;;;;;4191777;28;20106;-85
2022/09/25 01:36:13;;;;;;;8.95;2.25;;;12.30;74.60;;;;;;4191095;28;20183;-85
2022/09/25 01:38:30;;;;;;;9.68;2.38;;;12.30;74.70;;;;;;4207367;28;20093;-86
2022/09/25 01:40:47;;;;;;;6.15;1.88;;;12.30;74.80;;;;;;4189575;28;20078;-87
2022/09/25 01:42:52;;;;;;;3.90;1.48;;;12.30;74.90;;;;;;4173458;28;20056;-86
2022/09/25 01:45:05;;;;;;;7.07;2.05;;;12.30;74.90;;;;;;4193501;28;20100;-86
2022/09/25 01:47:09;;;;;;;7.20;2.05;;;12.30;75.00;;;;;;4188354;28;20117;-87
2022/09/25 01:49:25;;;;;;;6.88;2.03;;;12.30;75.00;;;;;;4191371;28;20036;-87
2022/09/25 01:51:34;;;;;;;6.57;1.95;;;12.30;75.00;;;;;;4191130;28;20016;-87
2022/09/25 01:53:42;;;;;;;5.05;2.10;;;12.30;75.10;;;;;;4189492;28;20074;-87
2022/09/25 01:55:51;;;;;;;5.10;1.70;;;12.30;75.10;;;;;;4186554;28;20111;-85
2022/09/25 01:58:03;;;;;;;10.73;1.88;;;12.30;75.10;;;;;;4189053;28;20403;-85
2022/09/25 02:00:17;;;;;;;7.75;2.20;;;12.40;75.30;;;;;;4204283;28;20043;-85
2022/09/25 02:02:22;;;;;;;6.47;2.38;;;12.30;75.30;;;;;;4188513;28;20041;-85
2022/09/25 02:04:29;;;;;;;7.88;2.08;;;12.30;75.20;;;;;;4191409;28;20033;-85
2022/09/25 02:06:32;;;;;;;4.70;2.00;;;12.30;75.20;;;;;;4190531;28;20029;-85
2022/09/25 02:08:46;;;;;;;4.97;2.15;;;12.30;75.30;;;;;;4190436;28;20115;-85
2022/09/25 02:10:52;;;;;;;7.30;2.58;;;12.30;75.50;;;;;;4185618;28;20052;-85
2022/09/25 02:12:59;;;;;;;5.78;2.50;;;12.30;75.40;;;;;;4189909;28;20029;-85
2022/09/25 02:15:10;;;;;;;7.50;2.45;;;12.30;75.40;;;;;;4189357;28;20495;-85
2022/09/25 02:20:30;;;;;;;5.40;2.42;;;12.30;75.40;;;;;;4187433;28;20027;-85
2022/09/25 02:22:23;;;;;;;6.00;2.65;;;12.30;75.40;;;;;;4190298;28;20501;-85
2022/09/25 02:24:31;;;;;;;7.00;2.78;;;12.20;75.40;;;;;;4186488;28;20048;-86
2022/09/25 02:26:34;;;;;;;10.10;2.72;;;12.20;75.40;;;;;;4193058;28;20098;-85
2022/09/25 02:28:35;;;;;;;11.15;3.08;;;12.20;75.50;;;;;;4190548;28;20216;-86
2022/09/25 02:30:36;;;;;;;13.00;3.05;;;12.20;75.50;;;;;;4191325;28;20020;-86
2022/09/25 02:32:37;;;;;;;7.63;3.10;;;12.20;75.60;;;;;;4190168;28;20050;-86
2022/09/25 02:34:38;;;;;;;9.25;2.90;;;12.20;75.60;;;;;;4189457;28;20052;-86
2022/09/25 02:36:39;;;;;;;5.45;3.00;;;12.30;75.60;;;;;;4190788;28;20021;-86
2022/09/25 02:38:39;;;;;;;6.32;3.20;;;12.20;75.70;;;;;;4205343;28;20024;-85
2022/09/25 02:40:55;;;;;;;9.25;3.20;;;12.30;75.80;;;;;;4188807;28;20086;-86
2022/09/25 02:43:24;;;;;;;7.10;3.83;;;12.20;76.00;;;;;;4191652;28;20024;-85
2022/09/25 02:45:41;;;;;;;9.10;3.17;;;12.20;75.90;;;;;;4183792;28;20573;-86
2022/09/25 02:47:47;;;;;;;7.28;2.92;;;12.20;75.90;;;;;;4204212;28;20066;-84
2022/09/25 02:49:58;;;;;;;9.80;3.28;;;12.20;76.00;;;;;;4190188;28;20032;-84
2022/09/25 02:52:26;;;;;;;6.40;3.30;;;12.20;75.90;;;;;;4187139;28;20099;-84
2022/09/25 02:54:54;;;;;;;12.18;4.00;;;12.20;76.30;;;;;;4182861;28;20033;-86
2022/09/25 02:57:00;;;;;;;8.68;3.60;;;12.20;76.30;;;;;;4204770;28;20046;-86
2022/09/25 02:59:08;;;;;;;11.75;3.83;;;12.20;76.20;;;;;;4190888;28;20089;-86
2022/09/25 03:01:13;;;;;;;8.52;3.20;;;12.20;76.10;;;;;;4192845;28;20032;-86
2022/09/25 03:03:16;;;;;;;8.43;3.75;;;12.20;76.20;;;;;;4190919;28;20060;-86
2022/09/25 03:05:17;;;;;;;8.07;3.22;;;12.20;76.30;;;;;;4207828;28;20030;-86
2022/09/25 03:07:19;;;;;;;8.63;3.47;;;12.20;76.30;;;;;;4190802;28;20080;-87
2022/09/25 03:09:21;;;;;;;8.57;3.45;;;12.20;76.40;;;;;;4206913;28;21072;-86
2022/09/25 03:11:25;;;;;;;8.80;3.23;;;12.20;76.40;;;;;;4206659;28;20024;-86
2022/09/25 03:13:30;;;;;;;9.13;3.50;;;12.20;76.50;;;;;;4206464;28;20016;-86
2022/09/25 03:15:31;;;;;;;8.15;3.33;;;12.20;76.60;;;;;;4206399;28;20052;-86
2022/09/25 03:17:33;;;;;;;10.88;3.42;;;12.20;76.60;;;;;;4203745;28;20033;-85
2022/09/25 03:19:34;;;;;;;5.72;3.60;;;12.20;76.50;;;;;;4205940;28;20029;-85
2022/09/25 03:21:34;;;;;;;6.05;3.38;;;12.20;76.50;;;;;;4204258;28;20032;-85
2022/09/25 03:23:35;;;;;;;8.55;3.70;;;12.20;77.30;;;;;;4204860;28;20036;-85
2022/09/25 03:25:36;;;;;;;6.93;3.45;;;12.20;76.50;;;;;;4196601;28;20397;-86
2022/09/25 03:27:37;;;;;;;9.93;3.05;;;12.20;76.60;;;;;;4190399;28;20553;-86
2022/09/25 03:29:38;;;;;;;7.60;3.78;;;12.20;76.60;;;;;;4190421;28;20032;-86
2022/09/25 03:31:41;;;;;;;10.93;3.47;;;12.20;76.70;;;;;;4205909;28;20035;-85
2022/09/25 03:33:43;;;;;;;9.05;3.85;;;12.30;76.70;;;;;;4189083;28;20503;-85
2022/09/25 03:35:43;;;;;;;10.07;3.85;;;12.30;76.70;;;;;;4191532;28;20035;-86
2022/09/25 03:37:44;;;;;;;10.63;4.00;;;12.20;76.70;;;;;;4188351;28;20479;-85
2022/09/25 03:39:45;;;;;;;13.60;3.78;;;12.30;76.80;;;;;;4189872;28;20041;-85
2022/09/25 03:41:46;;;;;;;7.80;3.65;;;12.30;76.70;;;;;;4187914;28;20054;-85
2022/09/25 03:43:50;;;;;;;13.85;3.70;;;12.20;76.80;;;;;;4189947;28;20507;-85
2022/09/25 03:45:50;;;;;;;12.13;3.55;;;12.30;76.80;;;;;;4188824;28;20021;-85
2022/09/25 03:47:51;;;;;;;8.95;3.50;;;12.20;76.80;;;;;;4191907;28;20031;-85
2022/09/25 03:49:52;;;;;;;8.40;3.65;;;12.30;76.80;;;;;;4188370;28;20111;-85
2022/09/25 03:51:53;;;;;;;9.27;3.88;;;12.20;76.70;;;;;;4188228;28;20385;-85
2022/09/25 03:53:54;;;;;;;8.50;3.60;;;12.20;76.80;;;;;;4201324;28;20064;-85
2022/09/25 03:55:55;;;;;;;6.82;3.58;;;12.30;76.80;;;;;;4203331;28;20032;-85
2022/09/25 03:57:55;;;;;;;9.77;3.72;;;12.20;77.50;;;;;;4189867;28;20035;-86
2022/09/25 04:00:00;;;;;;;7.75;4.07;;;12.20;76.70;;;;;;4190629;28;20029;-86
2022/09/25 04:02:01;;;;;;;9.63;4.22;;;12.20;76.80;;;;;;4188349;28;20032;-86
2022/09/25 04:04:02;;;;;;;6.53;3.58;;;12.20;76.70;;;;;;4189884;28;20197;-86
2022/09/25 04:06:05;;;;;;;14.48;3.60;;;12.20;76.70;;;;;;4186820;28;20073;-85
2022/09/25 04:08:05;;;;;;;;;;;12.20;76.70;;;;;;4189744;28;20111;-86
2022/09/25 04:10:07;;;;;;;8.40;3.47;;;12.20;77.20;;;;;;4198869;28;20404;-86
2022/09/25 04:12:07;;;;;;;8.27;4.10;;;12.20;76.60;;;;;;4189287;28;20028;-84
2022/09/25 04:14:09;;;;;;;8.57;3.53;;;12.20;76.60;;;;;;4189757;28;20077;-85
2022/09/25 04:16:11;;;;;;;9.13;3.88;;;12.30;76.80;;;;;;4200808;28;20339;-85
2022/09/25 04:18:13;;;;;;;12.40;3.83;;;12.20;76.90;;;;;;4187844;28;20039;-85
2022/09/25 04:20:13;;;;;;;6.68;3.75;;;12.20;77.00;;;;;;4187709;28;20064;-85
2022/09/25 04:22:14;;;;;;;9.90;3.60;;;12.20;77.20;;;;;;4188225;28;20059;-85
2022/09/25 04:26:34;;;;;;;7.05;3.33;;;12.20;77.10;;;;;;4186387;28;20012;-86
2022/09/25 04:28:35;;;;;;;8.20;3.65;;;12.20;77.10;;;;;;4190376;28;20028;-86
2022/09/25 04:30:36;;;;;;;10.35;3.63;;;12.30;77.20;;;;;;4189262;28;20104;-86
2022/09/25 04:34:57;;;;;;;8.40;3.72;;;12.20;77.10;;;;;;4189172;28;20456;-86
2022/09/25 04:36:57;;;;;;;14.88;4.75;;;12.20;77.00;;;;;;4187797;28;20614;-85
2022/09/25 04:38:58;;;;;;;11.48;4.50;;;12.20;77.00;;;;;;4188611;28;20020;-85
2022/09/25 04:41:00;;;;;;;11.68;4.25;;;12.20;76.90;;;;;;4188720;28;20032;-85
2022/09/25 04:43:02;;;;;;;8.43;3.80;;;12.20;76.80;;;;;;4188526;28;20041;-85
2022/09/25 04:45:03;;;;;;;14.05;4.00;;;12.10;76.80;;;;;;4187599;28;20051;-85
2022/09/25 04:47:04;;;;;;;8.75;4.00;;;12.10;76.70;;;;;;4185983;28;20082;-85
2022/09/25 04:49:05;;;;;;;12.10;3.72;;;12.10;76.70;;;;;;4189608;28;20104;-85
2022/09/25 04:51:06;;;;;;;6.25;4.00;;;12.20;76.80;;;;;;4185231;28;20027;-85
2022/09/25 04:53:06;;;;;;;7.53;3.88;;;12.20;76.80;;;;;;4186769;28;20472;-85
2022/09/25 04:55:07;;;;;;;7.00;4.03;;;12.10;76.70;;;;;;4188684;28;20752;-85
2022/09/25 04:57:19;;;;;;;11.02;4.00;;;12.10;76.70;;;;;;4182102;28;20036;-85
2022/09/25 04:59:20;;;;;;;10.23;4.35;;;12.10;76.70;;;;;;4188767;28;20044;-85
2022/09/25 05:01:21;;;;;;;10.85;4.88;;;12.10;76.60;;;;;;4187287;28;20035;-85
2022/09/25 05:03:21;;;;;;;7.85;4.38;;;12.10;76.60;;;;;;4185335;28;20587;-85
2022/09/25 05:05:28;;;;;;;10.73;5.60;;;12.10;76.50;;;;;;4190194;28;20056;-85
2022/09/25 05:07:28;;;;;;;10.48;5.88;;;12.10;76.40;;;;;;4205454;28;20096;-86
2022/09/25 05:09:29;;;;;;;14.80;6.68;;;12.00;76.50;;;;;;4194164;28;20036;-85
2022/09/25 05:11:30;;;;;;;10.05;5.80;;;12.00;76.50;;;;;;4212876;28;20046;-86
2022/09/25 05:13:31;;;;;;;11.43;6.45;;;12.00;76.50;;;;;;4210775;28;20040;-86
2022/09/25 05:15:32;;;;;;;15.57;6.47;;;12.00;76.60;;;;;;4208964;28;20040;-86
2022/09/25 05:17:33;;;;;;;13.40;6.65;;;12.00;77.40;;;;;;4199173;28;20043;-84
2022/09/25 05:19:34;;;;;;;13.52;6.65;;;11.90;76.70;;;;;;4195303;28;20021;-86
2022/09/25 05:21:35;;;;;;;11.27;6.75;;;11.90;76.70;;;;;;4192379;28;20025;-87
2022/09/25 05:23:36;;;;;;;12.07;6.68;;;11.90;76.80;;;;;;4192772;28;20382;-85
2022/09/25 05:25:37;;;;;;;11.20;6.32;;;11.90;76.80;;;;;;4193826;28;20029;-87
2022/09/25 05:27:37;;;;;;;13.45;6.97;;;11.90;76.80;;;;;;4194800;28;20042;-86
2022/09/25 05:29:39;;;;;;;17.15;7.47;;;11.90;76.90;;;;;;4197077;28;20047;-87
2022/09/25 05:31:41;;;;;;;11.43;7.22;;;11.90;77.00;;;;;;4191893;28;20111;-87
2022/09/25 05:33:42;;;;;;;14.68;7.25;;;11.90;77.10;;;;;;4196214;28;20106;-86
2022/09/25 05:35:43;;;;;;;11.85;7.40;;;11.90;77.00;;;;;;4190953;28;20039;-87
2022/09/25 05:37:44;;;;;;;15.50;8.45;;;11.90;77.00;;;;;;4196849;28;20024;-87
2022/09/25 05:39:44;;;;;;;15.15;7.95;;;11.90;77.10;;;;;;4192300;28;20093;-86
2022/09/25 05:41:45;;;;;;;14.73;7.95;;;11.90;77.10;;;;;;4177839;28;20029;-87
2022/09/25 05:43:46;;;;;;;15.35;8.45;;;11.90;77.10;;;;;;4207482;28;20069;-86
2022/09/25 05:45:54;;;;;;;12.05;7.47;;;11.90;77.00;;;;;;4192748;28;20031;-86
2022/09/25 05:48:01;;;;;;;15.65;8.32;;;11.90;77.10;;;;;;4191347;28;20025;-86
2022/09/25 05:50:03;;;;;;;16.23;7.88;;;11.90;77.00;;;;;;4187959;28;20403;-86
2022/09/25 05:52:04;;;;;;;15.68;8.02;;;11.80;77.00;;;;;;4190491;28;20032;-86
2022/09/25 05:54:04;;;;;;;12.88;7.68;;;11.90;77.10;;;;;;4193704;28;20101;-86
2022/09/25 05:56:05;;;;;;;14.55;8.00;;;11.80;77.00;;;;;;4187810;28;20051;-86
2022/09/25 05:58:06;;;;;;;14.70;7.88;;;11.90;77.10;;;;;;4206784;28;20071;-86
2022/09/25 06:00:09;;;;;;;13.13;7.75;;;11.90;77.00;;;;;;4192592;28;20550;-86
2022/09/25 06:02:11;;;;;;;11.73;6.97;;;11.90;77.10;;;;;;4192309;28;20040;-86
2022/09/25 06:04:12;;;;;;;12.32;7.38;;;11.80;77.00;;;;;;4194629;28;20448;-86
2022/09/25 06:06:13;;;;;;;11.20;7.10;;;11.90;76.90;;;;;;4189222;28;20032;-87
2022/09/25 06:08:13;;;;;;;15.00;7.00;;;11.80;76.80;;;;;;4192364;28;20025;-85
2022/09/25 06:10:14;;;;;;;11.73;7.13;;;11.80;76.80;;;;;;4189261;28;20063;-86
2022/09/25 06:12:15;;;;;;;15.38;6.97;;;11.80;76.80;;;;;;4208616;28;20647;-86
2022/09/25 06:14:16;;;;;;;13.60;7.07;;;11.80;76.80;;;;;;4192569;28;20047;-86
2022/09/25 06:16:18;;;;;;;11.25;7.03;;;11.80;76.90;;;;;;4188480;28;20028;-85
2022/09/25 06:18:21;;;;;;;13.20;7.68;;;11.90;76.90;;;;;;4184033;28;20056;-85
2022/09/25 06:20:21;;;;;;;12.82;7.57;;;11.80;76.80;;;;;;4188135;28;20463;-86
2022/09/25 06:22:22;;;;;;;14.30;7.63;;;11.70;76.80;;;;;;4205537;28;20028;-86
2022/09/25 06:24:23;;;;;;;13.57;7.80;;;11.70;76.80;;;;;;4188134;28;20076;-86
2022/09/25 06:26:24;;;;;;;12.45;7.55;;;11.70;76.80;;;;;;4188853;28;20033;-86
2022/09/25 06:28:25;;;;;;;13.02;7.82;;;11.70;76.80;;;;;;4188246;28;20384;-85
2022/09/25 06:30:33;;;;;;;12.38;7.68;;;11.70;76.80;;;;;;4189423;28;20020;-86
2022/09/25 06:32:33;;;;;;;13.32;8.13;;;11.70;76.80;;;;;;4186948;28;20470;-87
2022/09/25 06:34:34;;;;;;;12.70;7.65;;;11.70;76.80;;;;;;4189938;28;20064;-85
2022/09/25 06:36:35;;;;;;;13.40;7.82;;;11.60;76.80;;;;;;4188602;28;20089;-86
2022/09/25 06:38:36;;;;;;;11.40;7.40;;;11.70;76.90;;;;;;4191162;28;20063;-85
2022/09/25 06:40:39;;;;;;;12.25;8.05;;;11.60;76.80;;;;;;4184713;28;20450;-85
2022/09/25 06:42:39;;;;;;;10.00;7.38;;;11.60;76.80;;;;;;4205449;28;20020;-86
2022/09/25 06:44:40;;;;;;;16.92;8.10;;;11.50;76.80;;;;;;4191079;28;20117;-87
2022/09/25 06:46:43;;;;;;;11.70;7.57;;;11.50;76.70;;;;;;4182365;28;20039;-85
2022/09/25 06:48:52;;;;;;;;;;;11.50;76.80;;;;;;4186206;28;20045;-86
2022/09/25 06:50:55;;;;;;;13.70;8.00;;;11.50;77.00;;;;;;4185449;28;20355;-86
2022/09/25 06:52:59;;;;;;;12.45;7.95;;;11.50;76.50;;;;;;4184513;28;20028;-86
2022/09/25 06:55:00;;;;;;;10.50;7.47;;;11.50;76.60;;;;;;4188588;28;20029;-86
2022/09/25 06:57:00;;;;;;;11.93;8.23;;;11.50;76.70;;;;;;4187038;28;20073;-86
2022/09/25 06:59:01;;;;;;;11.73;8.30;;;11.40;76.70;;;;;;4188365;28;20029;-86
2022/09/25 07:01:02;;;;;;;12.70;8.05;;;11.40;76.90;;;;;;4205726;28;20032;-85
2022/09/25 07:05:22;;;;;;;13.13;9.23;;;11.50;77.20;;;;;;4189652;28;20109;-86
2022/09/25 07:07:23;;;;;;;14.55;8.95;;;11.40;77.10;;;;;;4186081;28;20036;-86
2022/09/25 07:09:23;;;;;;;12.07;8.27;;;11.40;77.30;;;;;;4188869;28;20024;-86
2022/09/25 07:11:26;;;;;;;11.77;8.77;;;11.50;77.30;;;;;;4189985;28;20045;-85
2022/09/25 07:13:30;;;;;;;14.40;8.93;;;11.50;77.30;;;;;;4191729;28;20020;-85
2022/09/25 07:15:31;;;;;;;;;;;11.40;77.30;;;;;;4188848;28;20029;-85
2022/09/25 07:17:31;;;;;;;10.30;7.18;;;11.40;77.60;;;;;;4189858;28;19920;-85
2022/09/25 07:19:32;;;;;;;13.07;7.93;;;11.50;77.10;;;;;;4185673;28;20028;-85
2022/09/25 07:21:33;;;;;;;12.18;8.27;;;11.50;77.20;;;;;;4185541;28;20028;-85
2022/09/25 07:23:35;;;;;;;14.13;8.77;;;11.50;77.30;;;;;;4199487;28;20074;-85
2022/09/25 07:25:35;;;;;;;10.82;7.70;;;11.40;77.30;;;;;;4185705;28;20143;-85
2022/09/25 07:27:36;;;;;;;13.30;7.75;;;11.50;77.50;;;;;;4186180;28;20562;-85
2022/09/25 07:29:37;;;;;;;13.55;8.52;;;11.50;77.50;;;;;;4186758;28;20045;-86
2022/09/25 07:31:37;;;;;;;11.75;7.72;;;11.50;77.60;;;;;;4184695;28;20080;-86
2022/09/25 07:33:38;;;;;;;10.98;7.97;;;11.50;77.60;;;;;;4200635;28;20481;-85
2022/09/25 07:35:39;;;;;;;10.15;7.57;;;11.60;77.70;;;;;;4189254;28;20028;-85
2022/09/25 07:37:39;;;;;;;11.80;7.60;;;11.50;77.70;;;;;;4186909;28;20033;-86
2022/09/25 07:39:40;;;;;;;12.38;7.22;;;11.50;77.80;;;;;;4188647;28;20032;-85
2022/09/25 07:41:41;;;;;;;11.05;7.22;;;11.60;77.80;;;;;;4183137;28;20412;-86
2022/09/25 07:43:42;;;;;;;15.88;7.43;;;11.60;77.80;;;;;;4186077;28;20115;-85
2022/09/25 07:45:51;;;;;;;10.27;7.10;;;11.60;77.80;;;;;;4188729;28;20523;-86
2022/09/25 07:47:55;;;;;;;12.65;7.80;;;11.60;78.00;;;;;;4202119;28;20028;-85
2022/09/25 07:49:57;;;;;;;9.27;6.57;;;11.70;78.10;;;;;;4185372;28;20025;-85
2022/09/25 07:51:58;;;;;;;11.20;6.93;;;11.70;78.20;;;;;;4189643;28;20036;-85
2022/09/25 07:53:59;;;;;;;13.73;8.25;;;11.80;78.30;;;;;;4190024;28;20029;-86
2022/09/25 07:56:01;;;;;;;15.60;7.93;;;11.70;78.20;;;;;;4185498;28;20036;-86
2022/09/25 07:58:02;;;;;;;11.02;7.63;;;11.80;78.20;;;;;;4187591;28;20033;-85
2022/09/25 08:00:04;;;;;;;11.13;7.63;;;11.90;78.20;;;;;;4186238;28;20040;-85
2022/09/25 08:02:05;;;;;;;13.10;7.57;;;11.90;78.10;;;;;;4188277;28;20040;-86
2022/09/25 08:04:06;;;;;;;11.00;7.35;;;11.90;78.10;;;;;;4186089;28;20035;-85
2022/09/25 08:06:10;;;;;;;11.77;7.45;;;12.00;78.00;;;;;;4190500;28;20023;-86
2022/09/25 08:08:11;;;;;;;10.80;7.53;;;12.00;78.00;;;;;;4193896;28;20028;-86
2022/09/25 08:10:13;;;;;;;13.43;7.97;;;12.10;78.00;;;;;;4205430;28;20024;-85
2022/09/25 08:12:14;;;;;;;11.07;7.50;;;12.00;77.90;;;;;;4184792;28;20025;-86
2022/09/25 08:14:15;;;;;;;12.60;8.23;;;12.00;77.90;;;;;;4194851;28;20033;-85
2022/09/25 08:16:17;;;;;;;12.20;7.80;;;12.10;77.90;;;;;;4189503;28;20035;-86
2022/09/25 08:18:18;;;;;;;13.48;7.93;;;12.10;77.90;;;;;;4185460;28;20025;-86
2022/09/25 08:20:19;;;;;;;12.13;8.00;;;12.10;77.80;;;;;;4188042;28;20081;-86
2022/09/25 08:22:19;;;;;;;13.68;7.30;;;12.20;77.70;;;;;;4185063;28;20529;-86
2022/09/25 08:24:20;;;;;;;10.48;6.78;;;12.20;77.60;;;;;;4188425;28;20028;-86
2022/09/25 08:26:21;;;;;;;13.35;7.60;;;12.30;77.70;;;;;;4184114;28;20029;-86
2022/09/25 08:28:22;;;;;;;13.60;7.22;;;12.20;77.60;;;;;;4192607;28;20029;-86
2022/09/25 08:30:23;;;;;;;12.02;7.15;;;12.30;77.50;;;;;;4190040;28;20043;-86
2022/09/25 08:32:24;;;;;;;11.32;6.97;;;12.30;77.40;;;;;;4190600;28;20030;-85
2022/09/25 08:34:25;;;;;;;13.13;7.13;;;12.40;77.40;;;;;;4192649;28;20032;-85
2022/09/25 08:36:26;;;;;;;12.13;7.10;;;12.30;77.30;;;;;;4186348;28;20020;-86
2022/09/25 08:38:28;;;;;;;12.68;6.70;;;12.30;77.20;;;;;;4196710;28;20031;-86
2022/09/25 08:40:30;;;;;;;9.27;6.13;;;12.40;77.20;;;;;;4193351;28;20024;-85
2022/09/25 08:42:35;;;;;;;11.02;6.25;;;12.40;77.30;;;;;;4185731;28;20020;-85
2022/09/25 08:44:41;;;;;;;9.15;5.82;;;12.40;77.20;;;;;;4192210;28;20059;-87
2022/09/25 08:49:13;;;;;;;10.25;5.15;;;12.40;77.00;;;;;;4205896;28;20078;-86
2022/09/25 08:51:13;;;;;;;9.10;5.50;;;12.50;77.00;;;;;;4203073;28;20028;-87
2022/09/25 08:53:23;;;;;;;10.00;5.50;;;12.50;77.00;;;;;;4186387;28;20032;-86
2022/09/25 08:57:54;;;;;;;11.90;6.07;;;12.50;76.60;;;;;;4202593;28;20024;-86
2022/09/25 08:59:59;;;;;;;9.57;5.40;;;12.60;76.50;;;;;;4187414;28;20021;-86
2022/09/25 09:02:11;;;;;;;9.00;5.15;;;12.60;76.30;;;;;;4190199;28;20036;-84
2022/09/25 09:04:18;;;;;;;8.05;5.45;;;12.60;76.30;;;;;;4187947;28;20187;-84
2022/09/25 09:06:22;;;;;;;8.63;5.10;;;12.70;76.30;;;;;;4185773;28;20083;-84
2022/09/25 09:08:26;;;;;;;12.00;6.00;;;12.60;76.10;;;;;;4187664;28;20095;-84
2022/09/25 09:10:35;;;;;;;15.15;5.65;;;12.70;76.20;;;;;;4187231;28;20060;-85
2022/09/25 09:12:42;;;;;;;10.95;5.88;;;12.60;76.00;;;;;;4188361;28;20025;-84
2022/09/25 09:14:53;;;;;;;11.85;6.50;;;12.60;75.90;;;;;;4190439;28;20041;-84
2022/09/25 09:17:18;;;;;;;10.80;6.57;;;12.70;76.20;;;;;;4187853;28;20039;-86
2022/09/25 09:19:18;;;;;;;14.88;6.47;;;12.70;76.40;;;;;;4184479;28;20155;-86
2022/09/25 09:21:31;;;;;;;9.82;5.57;;;12.70;76.50;;;;;;4185499;28;20074;-86
2022/09/25 09:23:38;;;;;;;8.20;5.30;;;12.80;76.60;;;;;;4185601;28;20125;-86
2022/09/25 09:25:58;;;;;;;9.48;4.88;;;12.80;76.60;;;;;;4184752;28;20124;-86
2022/09/25 09:28:19;;;;;;;7.30;4.57;;;12.90;76.80;;;;;;4190691;28;20078;-86
2022/09/25 09:30:32;;;;;;;9.85;4.57;;;13.00;76.50;;;;;;4186946;28;20143;-87
2022/09/25 09:32:32;;;;;;;8.05;4.20;;;13.00;76.40;;;;;;4179021;28;20071;-86
2022/09/25 09:34:36;;;;;;;6.88;3.65;;;13.10;76.30;;;;;;4182496;28;20032;-86
2022/09/25 09:36:42;;;;;;;;;;;13.10;76.20;;;;;;4182991;28;20112;-87
2022/09/25 09:39:03;;;;;;;9.57;3.67;;;13.20;76.10;;;;;;4188911;28;20085;-86
2022/09/25 09:41:31;;;;;;;11.13;3.30;;;13.30;76.10;;;;;;4185102;28;20296;-87
2022/09/25 09:43:49;;;;;;;10.45;3.88;;;13.30;76.20;;;;;;4192320;28;20052;-86
2022/09/25 09:46:00;;;;;;;7.15;3.00;;;13.40;76.10;;;;;;4189618;28;20024;-87
2022/09/25 09:48:24;;;;;;;7.38;3.45;;;13.50;75.80;;;;;;4188792;28;20028;-86
2022/09/25 09:50:35;;;;;;;5.78;2.50;;;13.50;74.50;;;;;;4185862;28;20019;-86
2022/09/25 09:52:40;;;;;;;7.43;2.38;;;13.60;74.90;;;;;;4187002;28;20490;-86
2022/09/25 09:54:47;;;;;;;4.18;2.10;;;13.60;73.90;;;;;;4197147;28;20032;-86
2022/09/25 09:56:50;;;;;;;5.70;1.70;;;13.70;74.10;;;;;;4197418;28;20028;-88
2022/09/25 09:58:55;;;;;;;4.93;1.90;;;13.70;73.90;;;;;;4187882;28;20776;-88
2022/09/25 10:00:58;;;;;;;5.60;1.83;;;13.80;73.90;;;;;;4185636;28;20569;-88
2022/09/25 10:03:09;;;;;;;2.85;1.15;;;13.80;72.50;;;;;;4186594;28;20106;-88
2022/09/25 10:05:35;;;;;;;8.75;1.40;;;13.80;72.20;;;;;;4186734;28;20085;-89
2022/09/25 10:07:39;;;;;;;2.40;0.98;;;13.90;71.30;;;;;;4201923;28;20028;-89
2022/09/25 10:09:39;;;;;;;5.20;0.90;;;13.90;71.50;;;;;;4180526;28;20059;-88
2022/09/25 10:11:44;;;;;;;7.72;1.00;;;14.00;71.60;;;;;;4186229;28;20050;-88
2022/09/25 10:13:46;;;;;;;2.55;0.75;;;14.20;71.80;;;;;;4184873;28;20029;-88
2022/09/25 10:15:56;;;;;;;3.30;1.08;;;14.20;71.50;;;;;;4198777;28;20119;-87
2022/09/25 10:26:53;;;;;;;5.28;1.33;;;14.50;67.70;;;;;;4271325;22;20093;-87
2022/09/25 10:28:59;;;;;;;3.72;1.00;;;14.70;68.00;;;;;;4116572;28;20018;-87
2022/09/25 10:31:01;;;;;;;4.38;1.35;;;14.60;68.50;;;;;;4112833;28;20034;-87
2022/09/25 10:33:13;;;;;;;3.65;0.85;;;14.60;67.60;;;;;;4119839;28;20080;-86
2022/09/25 10:35:28;;;;;;;4.93;1.00;;;14.60;67.00;;;;;;4114124;28;20037;-86
2022/09/25 10:37:34;;;;;;;5.70;0.75;;;14.70;66.80;;;;;;4126016;28;20030;-86
2022/09/25 10:39:39;;;;;;;4.05;0.80;;;14.70;67.00;;;;;;4122652;28;20070;-86
2022/09/25 10:41:42;;;;;;;2.95;0.77;;;14.70;67.10;;;;;;4127478;28;20033;-86
2022/09/25 10:43:54;;;;;;;5.00;1.00;;;14.70;67.10;;;;;;4126047;28;20037;-86
2022/09/25 10:46:05;;;;;;;5.55;0.68;;;14.70;66.60;;;;;;4128898;28;20049;-86
2022/09/25 10:51:08;;;;;;;4.07;0.70;;;14.80;65.40;;;;;;4124838;28;20025;-87
2022/09/25 10:53:28;;;;;;;2.70;0.57;;;14.80;64.00;;;;;;4105007;28;20035;-85
2022/09/25 10:55:30;;;;;;;2.65;0.65;;;14.90;63.90;;;;;;4160833;23;20136;-83
2022/09/25 10:57:37;;;;;;;7.07;0.98;;;14.90;64.00;;;;;;4137512;28;20096;-83
2022/09/25 10:59:38;;;;;;;2.15;0.70;;;15.00;62.70;;;;;;4123723;28;20038;-82
2022/09/25 11:01:42;;;;;;;3.03;0.68;;;15.00;63.20;;;;;;4141947;28;20069;-84
2022/09/25 11:03:55;;;;;;;7.63;0.70;;;15.10;62.90;;;;;;4137995;28;20033;-83
2022/09/25 11:06:06;;;;;;;2.97;0.70;;;15.20;61.70;;;;;;4127006;28;20026;-84
2022/09/25 11:08:08;;;;;;;3.88;0.85;;;15.20;61.30;;;;;;4112438;28;20031;-84
2022/09/25 11:10:19;;;;;;;1.95;0.60;;;15.20;61.40;;;;;;4108794;28;20027;-83
2022/09/25 11:12:28;;;;;;;4.18;1.02;;;15.30;60.20;;;;;;4127129;28;20121;-83
2022/09/25 11:14:32;;;;;;;4.00;0.88;;;15.30;60.00;;;;;;4124774;28;20057;-83